Time;durP1;ratioP1;P1;durP2;ratioP2;P2;SDS_P1;SDS_P2;PMS_P1;PMS_P2;Temp;Humidity;BMP_temperature;BMP_pressure;BME280_temperature;BME280_humidity;BME280_pressure;Samples;Min_cycle;Max_cycle;Signal;HPM_P1;HPM_P2
2023/01/28 00:01:25;;;;;;;12.32;9.13;;;;;;;1.89;94.63;102039.41;5042463;28;20084;-78
2023/01/28 00:03:52;;;;;;;12.80;9.05;;;;;;;1.88;95.01;102042.09;5042664;28;20088;-78
2023/01/28 00:06:19;;;;;;;13.00;9.18;;;;;;;1.79;95.62;102042.47;5045351;28;20048;-78
2023/01/28 00:08:46;;;;;;;14.05;9.38;;;;;;;1.70;95.98;102042.84;5045314;28;20049;-79
2023/01/28 00:11:13;;;;;;;12.32;8.63;;;;;;;1.70;96.16;102053.19;5044259;28;20076;-78
2023/01/28 00:13:40;;;;;;;12.05;8.63;;;;;;;1.72;96.51;102043.63;5042248;28;20069;-77
2023/01/28 00:16:08;;;;;;;13.70;9.02;;;;;;;1.59;96.59;102041.56;5045804;28;20103;-77
2023/01/28 00:18:37;;;;;;;10.98;7.97;;;;;;;1.62;96.82;102046.59;5045592;28;20053;-78
2023/01/28 00:21:05;;;;;;;12.70;8.43;;;;;;;1.57;96.71;102038.22;5045939;28;20084;-79
2023/01/28 00:23:34;;;;;;;11.02;8.05;;;;;;;1.53;96.34;102049.56;5050370;28;20056;-77
2023/01/28 00:26:02;;;;;;;9.95;7.65;;;;;;;1.50;96.20;102038.53;5047511;28;20072;-78
2023/01/28 00:28:28;;;;;;;9.10;7.10;;;;;;;1.47;95.88;102034.31;5045841;28;20095;-78
2023/01/28 00:30:55;;;;;;;10.23;6.78;;;;;;;1.38;96.10;102034.72;5051978;28;20065;-79
2023/01/28 00:33:23;;;;;;;10.82;7.50;;;;;;;1.27;96.15;102024.00;5047991;28;20053;-79
2023/01/28 00:35:59;;;;;;;12.95;7.88;;;;;;;1.29;95.95;102027.38;5049694;28;20080;-79
2023/01/28 00:38:25;;;;;;;10.25;7.57;;;;;;;1.29;95.83;102024.78;5043918;28;20152;-77
2023/01/28 00:40:52;;;;;;;10.02;7.55;;;;;;;1.28;95.61;102030.84;5043485;28;20077;-79
2023/01/28 00:43:19;;;;;;;9.60;7.20;;;;;;;1.26;95.57;102033.47;5041057;28;20139;-78
2023/01/28 00:45:45;;;;;;;11.50;7.65;;;;;;;1.28;95.88;102036.00;5039421;28;20097;-77
2023/01/28 00:48:12;;;;;;;10.30;7.28;;;;;;;1.19;96.10;102034.63;5042215;28;20104;-78
2023/01/28 00:50:40;;;;;;;9.93;7.25;;;;;;;1.22;96.06;102042.25;5042777;28;20049;-77
2023/01/28 00:53:08;;;;;;;11.23;7.97;;;;;;;1.20;95.93;102033.72;5042223;28;20073;-78
2023/01/28 00:55:34;;;;;;;12.02;7.55;;;;;;;1.29;95.70;102032.53;5043840;28;20053;-77
2023/01/28 00:58:01;;;;;;;10.85;7.30;;;;;;;1.24;95.95;102037.03;5044927;28;20076;-78
2023/01/28 01:00:27;;;;;;;10.80;7.75;;;;;;;1.20;95.70;102043.19;5043760;28;20064;-78
2023/01/28 01:02:54;;;;;;;11.23;8.38;;;;;;;1.16;95.71;102039.06;5045486;28;20114;-78
2023/01/28 01:05:21;;;;;;;11.77;8.63;;;;;;;0.99;95.99;102025.09;5042594;28;20114;-78
2023/01/28 01:07:47;;;;;;;12.63;8.38;;;;;;;1.01;95.99;102032.78;5038741;28;20100;-78
2023/01/28 01:10:18;;;;;;;11.98;8.70;;;;;;;1.03;95.94;102035.28;5040120;28;20132;-79
2023/01/28 01:12:46;;;;;;;14.15;8.85;;;;;;;0.96;96.22;102026.97;5040447;28;20132;-77
2023/01/28 01:15:13;;;;;;;11.57;8.55;;;;;;;1.00;96.49;102034.50;5039487;28;20120;-78
2023/01/28 01:17:43;;;;;;;13.52;8.70;;;;;;;0.94;96.69;102041.66;5044457;28;20092;-79
2023/01/28 01:20:18;;;;;;;13.25;10.00;;;;;;;0.89;96.69;102044.41;5042936;28;20050;-80
2023/01/28 01:22:45;;;;;;;14.25;10.18;;;;;;;0.87;96.88;102042.81;5044917;28;20049;-78
2023/01/28 01:25:13;;;;;;;15.52;9.60;;;;;;;0.86;97.27;102049.69;5038813;28;20220;-79
2023/01/28 01:27:41;;;;;;;14.23;9.73;;;;;;;0.78;97.24;102051.72;5038580;28;20072;-79
2023/01/28 01:30:09;;;;;;;13.38;9.30;;;;;;;0.69;97.48;102052.06;5041522;28;20129;-77
2023/01/28 01:32:37;;;;;;;14.65;9.73;;;;;;;0.64;98.07;102048.81;5044501;28;20176;-76
2023/01/28 01:35:06;;;;;;;14.73;9.50;;;;;;;0.66;98.35;102044.44;5041095;28;20077;-79
2023/01/28 01:37:34;;;;;;;13.73;9.38;;;;;;;0.66;98.60;102049.59;5041346;28;20055;-78
2023/01/28 01:40:00;;;;;;;14.48;9.50;;;;;;;0.58;98.63;102049.03;5041388;28;20071;-79
2023/01/28 01:42:27;;;;;;;15.07;9.18;;;;;;;0.58;99.01;102056.78;5043092;28;20053;-78
2023/01/28 01:45:01;;;;;;;14.07;9.07;;;;;;;0.75;98.90;102051.84;5042647;28;20136;-79
2023/01/28 01:47:33;;;;;;;12.40;9.15;;;;;;;0.83;99.41;102048.97;5041379;28;20057;-80
2023/01/28 01:50:02;;;;;;;13.27;9.13;;;;;;;0.87;99.20;102041.06;5041497;28;20109;-78
2023/01/28 01:52:33;;;;;;;12.30;9.85;;;;;;;0.92;99.17;102039.16;5042410;28;20420;-78
2023/01/28 01:55:04;;;;;;;14.02;10.40;;;;;;;0.99;98.92;102047.47;5040039;28;20557;-79
2023/01/28 01:57:33;;;;;;;15.07;9.80;;;;;;;1.08;98.97;102041.09;5040546;28;20101;-79
2023/01/28 02:00:05;;;;;;;13.20;9.70;;;;;;;1.05;98.83;102051.53;5040922;28;20109;-79
2023/01/28 02:02:36;;;;;;;15.60;9.95;;;;;;;0.98;98.83;102049.19;5043300;28;20132;-79
2023/01/28 02:05:04;;;;;;;16.95;10.25;;;;;;;0.89;99.02;102043.59;5039716;28;20077;-80
2023/01/28 02:07:31;;;;;;;14.27;10.30;;;;;;;0.80;98.98;102047.34;5040784;28;20129;-80
2023/01/28 02:09:57;;;;;;;16.33;11.25;;;;;;;0.75;99.28;102038.94;5041142;28;20084;-80
2023/01/28 02:12:29;;;;;;;18.13;11.35;;;;;;;0.70;99.55;102040.88;5039963;28;20129;-80
2023/01/28 02:15:00;;;;;;;15.97;11.13;;;;;;;0.66;99.60;102047.03;5039637;28;20487;-78
2023/01/28 02:17:28;;;;;;;17.48;11.77;;;;;;;0.62;100.00;102054.03;5040120;28;20232;-80
2023/01/28 02:19:59;;;;;;;17.23;11.80;;;;;;;0.57;100.00;102048.22;5039519;28;20132;-78
2023/01/28 02:22:58;;;;;;;19.90;12.52;;;;;;;0.65;100.00;102055.66;5041174;28;20247;-78
2023/01/28 02:26:04;;;;;;;19.45;12.00;;;;;;;0.58;100.00;102049.03;5038994;28;20049;-80
2023/01/28 02:28:36;;;;;;;18.10;12.32;;;;;;;0.66;100.00;102049.59;5013845;28;20109;-79
2023/01/28 02:31:10;;;;;;;18.77;12.05;;;;;;;0.70;100.00;102058.06;5038351;28;20108;-77
2023/01/28 02:33:44;;;;;;;16.63;11.55;;;;;;;0.69;100.00;102052.06;5038463;28;20051;-78
2023/01/28 02:36:22;;;;;;;17.52;11.48;;;;;;;0.69;100.00;102056.38;5039334;28;20136;-79
2023/01/28 02:38:53;;;;;;;15.70;11.10;;;;;;;0.75;99.90;102067.28;5040135;28;20041;-79
2023/01/28 02:41:25;;;;;;;17.23;11.88;;;;;;;0.75;99.45;102062.13;5039183;28;20041;-79
2023/01/28 02:43:54;;;;;;;17.48;10.95;;;;;;;0.67;99.52;102059.00;5039306;28;20164;-79
2023/01/28 02:49:20;;;;;;;16.05;11.55;;;;;;;0.78;99.20;102063.75;5042772;28;20415;-79
2023/01/28 02:52:08;;;;;;;17.52;11.73;;;;;;;0.79;99.23;102062.88;5056548;28;20593;-78
2023/01/28 02:54:40;;;;;;;15.57;10.98;;;;;;;0.83;99.17;102067.84;5045419;28;20209;-79
2023/01/28 02:57:18;;;;;;;12.73;9.07;;;;;;;0.84;99.30;102077.25;5039010;28;20053;-78
2023/01/28 02:59:55;;;;;;;14.52;11.38;;;;;;;0.90;99.20;102078.75;5038281;28;20049;-78
2023/01/28 03:02:29;;;;;;;15.40;10.30;;;;;;;0.98;98.68;102084.44;5039978;28;20053;-78
2023/01/28 03:05:03;;;;;;;14.48;10.52;;;;;;;1.01;98.43;102084.31;5042367;28;20049;-78
2023/01/28 03:07:33;;;;;;;15.75;11.02;;;;;;;1.02;97.80;102093.72;5040971;28;20120;-79
2023/01/28 03:10:04;;;;;;;14.77;10.38;;;;;;;1.06;97.54;102091.88;5038197;28;20053;-78
2023/01/28 03:37:47;;;;;;;15.85;10.95;;;;;;;1.17;95.41;102089.72;5037279;28;20056;-79
2023/01/28 03:40:14;;;;;;;15.10;9.90;;;;;;;1.18;95.55;102099.16;5041531;28;20132;-79
2023/01/28 03:42:41;;;;;;;15.48;9.63;;;;;;;1.16;95.30;102088.88;5047278;28;20124;-78
2023/01/28 03:45:08;;;;;;;16.08;10.65;;;;;;;1.17;95.01;102093.16;5040055;28;20160;-79
2023/01/28 03:47:39;;;;;;;14.40;9.50;;;;;;;1.18;94.55;102091.41;5038923;28;20056;-78
2023/01/28 03:50:06;;;;;;;17.00;10.52;;;;;;;1.12;94.59;102087.31;5046867;28;20053;-78
2023/01/28 03:52:33;;;;;;;19.20;10.35;;;;;;;1.18;94.31;102092.25;5042427;28;20503;-79
2023/01/28 03:55:00;;;;;;;12.65;9.68;;;;;;;1.14;94.04;102095.84;5037777;28;20072;-78
2023/01/28 03:57:30;;;;;;;13.63;10.07;;;;;;;1.17;94.20;102097.47;5037237;28;20144;-79
2023/01/28 03:59:56;;;;;;;13.98;10.02;;;;;;;1.20;93.79;102102.50;5084566;23;20124;-79
2023/01/28 04:02:25;;;;;;;13.02;8.95;;;;;;;1.16;93.80;102100.94;5015434;28;20132;-79
2023/01/28 04:04:53;;;;;;;14.63;10.20;;;;;;;1.17;93.84;102095.72;5016280;28;20137;-80
2023/01/28 04:07:20;;;;;;;13.35;9.85;;;;;;;1.15;94.25;102094.94;5009495;28;20069;-81
2023/01/28 04:09:46;;;;;;;13.75;10.15;;;;;;;1.14;93.70;102097.59;5009191;28;20069;-80
2023/01/28 04:12:13;;;;;;;15.10;10.75;;;;;;;1.17;93.70;102102.63;5004092;28;20085;-80
2023/01/28 04:14:40;;;;;;;14.23;10.52;;;;;;;1.20;93.48;102097.34;5004745;28;20062;-80
2023/01/28 04:17:09;;;;;;;16.08;10.98;;;;;;;1.19;93.83;102111.13;5005687;28;20118;-78
2023/01/28 04:19:39;;;;;;;19.60;12.00;;;;;;;1.15;93.87;102112.16;5009939;28;20061;-79
2023/01/28 04:22:10;;;;;;;16.65;11.93;;;;;;;1.13;93.89;102104.47;5003237;28;20069;-78
2023/01/28 04:24:37;;;;;;;17.38;11.60;;;;;;;1.19;93.45;102103.41;4997530;28;20134;-79
2023/01/28 04:27:03;;;;;;;16.98;12.05;;;;;;;1.14;93.56;102110.47;5004670;28;20464;-77
2023/01/28 04:29:30;;;;;;;16.98;12.25;;;;;;;1.12;93.68;102113.09;5009589;28;20038;-79
2023/01/28 04:31:57;;;;;;;17.35;12.63;;;;;;;1.15;93.51;102114.72;5013340;28;20050;-78
2023/01/28 04:34:23;;;;;;;18.75;12.40;;;;;;;1.17;93.82;102112.94;5009662;28;20046;-78
2023/01/28 04:36:50;;;;;;;17.83;12.73;;;;;;;1.17;93.70;102115.50;5011666;28;20452;-80
2023/01/28 04:39:18;;;;;;;18.77;13.18;;;;;;;1.16;94.02;102124.97;5002684;28;20081;-77
2023/01/28 04:41:45;;;;;;;19.40;13.60;;;;;;;1.21;93.92;102127.38;4997980;28;20082;-79
2023/01/28 04:44:12;;;;;;;20.35;14.48;;;;;;;1.24;93.85;102129.84;4998398;28;20073;-80
2023/01/28 04:46:41;;;;;;;20.33;14.60;;;;;;;1.20;93.90;102131.72;5004611;28;20070;-78
2023/01/28 04:49:08;;;;;;;22.98;15.25;;;;;;;1.15;94.09;102122.47;5006227;28;20054;-79
2023/01/28 04:51:35;;;;;;;20.23;15.18;;;;;;;1.13;93.99;102129.41;5001692;28;20432;-79
2023/01/28 04:54:04;;;;;;;21.23;14.95;;;;;;;1.15;94.31;102132.78;5009738;28;20073;-80
2023/01/28 04:56:32;;;;;;;26.15;17.30;;;;;;;1.10;94.48;102129.53;5004659;28;20050;-79
2023/01/28 04:58:59;;;;;;;28.63;17.65;;;;;;;1.10;94.80;102129.53;5003423;28;20145;-77
2023/01/28 05:01:26;;;;;;;26.92;19.55;;;;;;;1.16;94.69;102126.72;5006810;28;20042;-79
2023/01/28 05:04:04;;;;;;;31.30;20.15;;;;;;;1.16;94.90;102137.03;5004772;28;20042;-79
2023/01/28 05:06:33;;;;;;;30.83;19.17;;;;;;;1.09;94.51;102128.69;4999108;28;20146;-81
2023/01/28 05:09:00;;;;;;;29.67;19.30;;;;;;;1.12;95.02;102128.56;5002724;28;20045;-81
2023/01/28 05:11:47;;;;;;;31.27;19.10;;;;;;;0.97;94.64;102109.38;4999392;28;20042;-80
2023/01/28 05:14:40;;;;;;;33.58;19.77;;;;;;;1.12;94.87;102128.56;4998812;28;20059;-80
2023/01/28 05:17:07;;;;;;;34.30;20.92;;;;;;;1.12;94.62;102130.31;5005669;28;20061;-79
2023/01/28 05:19:33;;;;;;;34.22;21.70;;;;;;;1.10;94.67;102124.38;5001476;28;20050;-79
2023/01/28 05:22:00;;;;;;;31.70;20.35;;;;;;;1.13;94.53;102129.41;5003130;28;20050;-80
2023/01/28 05:24:29;;;;;;;34.10;20.15;;;;;;;1.06;94.83;102118.50;4999032;28;20046;-80
2023/01/28 05:26:57;;;;;;;33.92;19.85;;;;;;;0.96;94.39;102112.84;4999927;28;20050;-80
2023/01/28 05:29:24;;;;;;;34.80;21.58;;;;;;;1.08;94.02;102126.19;4999618;28;20054;-81
2023/01/28 05:31:54;;;;;;;28.90;18.45;;;;;;;1.04;93.99;102132.34;5005121;28;20461;-80
2023/01/28 05:34:21;;;;;;;30.63;18.92;;;;;;;1.02;94.00;102131.56;4999693;28;20050;-78
2023/01/28 05:36:47;;;;;;;29.58;19.08;;;;;;;0.90;93.43;102104.53;4999650;28;20058;-80
2023/01/28 05:39:15;;;;;;;31.42;18.35;;;;;;;0.90;93.32;102109.69;4999247;28;20526;-80
2023/01/28 05:41:42;;;;;;;32.67;18.92;;;;;;;0.85;93.55;102106.44;4998725;28;20571;-78
2023/01/28 05:44:10;;;;;;;30.77;19.08;;;;;;;0.85;93.35;102112.44;4997398;28;20120;-79
2023/01/28 05:46:44;;;;;;;29.75;18.08;;;;;;;0.98;92.94;102123.09;4997990;28;20555;-79
2023/01/28 05:49:12;;;;;;;28.58;18.15;;;;;;;0.93;93.35;102127.63;4997255;28;20104;-79
2023/01/28 05:51:39;;;;;;;29.95;17.65;;;;;;;0.97;92.99;102124.84;4997337;28;20069;-79
2023/01/28 05:54:05;;;;;;;27.05;17.48;;;;;;;0.93;92.73;102125.88;4998260;28;20075;-79
2023/01/28 05:56:33;;;;;;;30.15;18.52;;;;;;;0.97;92.59;102132.56;5001272;28;20436;-79
2023/01/28 05:59:00;;;;;;;29.23;18.45;;;;;;;0.93;92.35;102141.34;5001180;28;20126;-79
2023/01/28 06:01:28;;;;;;;27.60;17.38;;;;;;;0.96;92.58;102142.94;5008813;28;20050;-79
2023/01/28 06:03:55;;;;;;;29.52;17.35;;;;;;;0.93;92.46;102136.19;5002551;28;20058;-78
2023/01/28 06:06:22;;;;;;;27.92;17.92;;;;;;;1.00;92.22;102155.66;5002928;28;20085;-79
2023/01/28 06:08:49;;;;;;;29.17;19.05;;;;;;;0.97;92.00;102157.50;5005138;28;20066;-80
2023/01/28 06:11:17;;;;;;;28.80;16.80;;;;;;;1.02;91.74;102167.66;5003505;28;20050;-78
2023/01/28 06:13:44;;;;;;;29.10;18.38;;;;;;;0.95;91.82;102157.56;4997008;28;20519;-78
2023/01/28 06:16:10;;;;;;;27.05;16.73;;;;;;;0.95;91.81;102154.97;4999667;28;20454;-79
2023/01/28 06:18:40;;;;;;;29.00;17.73;;;;;;;0.97;91.72;102160.91;4999784;28;20077;-78
2023/01/28 06:21:07;;;;;;;30.15;18.60;;;;;;;1.00;91.88;102157.41;5001709;28;20063;-79
2023/01/28 06:23:33;;;;;;;26.17;17.42;;;;;;;0.97;92.08;102160.91;5003799;28;20133;-79
2023/01/28 06:26:00;;;;;;;28.27;16.77;;;;;;;0.99;91.92;102163.44;5001618;28;20511;-79
2023/01/28 06:28:27;;;;;;;26.65;16.50;;;;;;;0.87;91.88;102151.88;5001225;28;20089;-79
2023/01/28 06:30:56;;;;;;;24.35;15.35;;;;;;;0.97;91.61;102155.78;5007571;28;20073;-79
2023/01/28 06:33:23;;;;;;;22.80;15.63;;;;;;;0.96;91.34;102172.13;5006404;28;20074;-80
2023/01/28 06:35:55;;;;;;;24.30;15.32;;;;;;;0.92;91.36;102160.28;5003059;28;20097;-79
2023/01/28 06:38:22;;;;;;;25.73;15.13;;;;;;;0.89;91.23;102157.81;5000164;28;20062;-81
2023/01/28 06:40:52;;;;;;;26.50;15.50;;;;;;;0.95;90.93;102156.72;5003816;28;20062;-81
2023/01/28 06:43:19;;;;;;;22.92;15.00;;;;;;;0.88;90.87;102156.13;5002455;28;20073;-80
2023/01/28 06:45:45;;;;;;;22.67;14.93;;;;;;;0.90;90.61;102154.34;5010080;28;20149;-81
2023/01/28 06:48:12;;;;;;;26.20;15.23;;;;;;;0.91;90.69;102153.44;5007519;28;20129;-82
2023/01/28 06:50:39;;;;;;;25.90;16.45;;;;;;;0.91;90.38;102158.59;5008587;28;20054;-81
2023/01/28 06:53:07;;;;;;;19.75;13.43;;;;;;;0.98;89.83;102162.59;5003391;28;20069;-81
2023/01/28 06:55:33;;;;;;;23.98;14.90;;;;;;;0.95;90.06;102156.72;5001668;28;20628;-80
2023/01/28 06:58:00;;;;;;;20.83;13.65;;;;;;;0.89;89.46;102159.56;5001007;28;20140;-80
2023/01/28 07:00:31;;;;;;;21.10;14.10;;;;;;;0.91;90.03;102165.50;5004077;28;20081;-81
2023/01/28 07:02:58;;;;;;;24.80;14.55;;;;;;;0.86;89.77;102159.66;5004084;28;20480;-81
2023/01/28 07:05:26;;;;;;;25.42;14.43;;;;;;;0.90;89.46;102167.22;5008860;28;20072;-81
2023/01/28 07:07:53;;;;;;;24.25;15.15;;;;;;;0.94;89.57;102171.38;5003768;28;20497;-81
2023/01/28 07:10:24;;;;;;;23.58;14.38;;;;;;;0.89;89.46;102173.28;5010514;28;20049;-81
2023/01/28 07:12:51;;;;;;;22.90;15.25;;;;;;;0.87;89.42;102175.06;5011004;28;20038;-80
2023/01/28 07:15:18;;;;;;;21.27;14.50;;;;;;;0.88;89.00;102175.91;5013756;28;20047;-81
2023/01/28 07:17:49;;;;;;;20.90;14.27;;;;;;;0.88;89.07;102175.91;5012280;28;20045;-80
2023/01/28 07:20:17;;;;;;;22.85;14.60;;;;;;;0.94;88.79;102166.22;5015555;28;20121;-81
2023/01/28 07:22:46;;;;;;;19.55;13.48;;;;;;;0.88;88.58;102170.75;5011560;28;20058;-81
2023/01/28 07:25:15;;;;;;;21.27;14.38;;;;;;;0.89;88.60;102160.41;5006336;28;20049;-81
2023/01/28 07:27:57;;;;;;;25.42;14.32;;;;;;;0.78;88.35;102156.53;4997410;28;20117;-81
2023/01/28 07:30:24;;;;;;;24.35;15.15;;;;;;;0.83;88.48;102168.34;4991126;28;20058;-81
2023/01/28 07:32:54;;;;;;;26.67;15.35;;;;;;;0.77;88.75;102160.84;4999924;28;20050;-80
2023/01/28 07:35:21;;;;;;;26.30;15.85;;;;;;;0.84;88.57;102171.75;4997237;28;20061;-81
2023/01/28 07:37:51;;;;;;;25.17;16.27;;;;;;;0.81;88.87;102164.97;4998655;28;20110;-80
2023/01/28 07:40:18;;;;;;;28.02;16.85;;;;;;;0.84;88.62;102170.03;5002257;28;20061;-81
2023/01/28 07:42:45;;;;;;;23.55;15.85;;;;;;;0.79;88.27;102166.78;5008564;28;20043;-80
2023/01/28 07:45:13;;;;;;;23.92;15.80;;;;;;;0.75;88.07;102165.19;4999256;28;20220;-80
2023/01/28 07:47:40;;;;;;;28.30;17.33;;;;;;;0.82;87.60;102160.66;4998870;28;20082;-81
2023/01/28 07:50:12;;;;;;;28.33;17.75;;;;;;;0.82;87.58;102161.50;5001632;28;20058;-80
2023/01/28 07:52:43;;;;;;;29.40;17.90;;;;;;;0.82;87.65;102161.50;5007463;28;20054;-78
2023/01/28 07:55:14;;;;;;;30.42;18.27;;;;;;;0.86;87.36;102173.38;5006167;28;20061;-79
2023/01/28 07:57:51;;;;;;;30.08;18.67;;;;;;;0.81;86.80;102171.88;4999145;28;20114;-79
2023/01/28 08:00:21;;;;;;;28.23;17.65;;;;;;;0.83;86.62;102167.50;4998547;28;20050;-78
2023/01/28 08:02:48;;;;;;;32.53;18.45;;;;;;;0.82;86.24;102169.25;5009916;28;20046;-81
2023/01/28 08:05:19;;;;;;;28.15;17.45;;;;;;;0.85;86.11;102170.88;4996615;28;20469;-80
2023/01/28 08:07:48;;;;;;;32.10;18.73;;;;;;;0.87;86.24;102177.66;4997205;28;20122;-79
2023/01/28 08:10:15;;;;;;;29.13;18.50;;;;;;;0.91;85.87;102183.53;4996941;28;20439;-80
2023/01/28 08:12:50;;;;;;;29.00;18.15;;;;;;;0.86;85.66;102193.16;4997671;28;20101;-79
2023/01/28 08:15:17;;;;;;;31.13;17.77;;;;;;;0.85;85.83;102194.91;4998431;28;20137;-80
2023/01/28 08:17:45;;;;;;;29.05;17.83;;;;;;;0.86;85.77;102193.16;5003632;28;20054;-80
2023/01/28 08:20:12;;;;;;;34.90;19.63;;;;;;;0.90;85.93;102205.88;4998310;28;20082;-80
2023/01/28 08:22:39;;;;;;;32.03;18.80;;;;;;;0.96;85.77;102205.63;5004105;28;20425;-80
2023/01/28 08:25:06;;;;;;;27.08;17.27;;;;;;;0.94;84.93;102201.47;4998923;28;20078;-80
2023/01/28 08:27:33;;;;;;;29.75;17.80;;;;;;;0.89;85.31;102193.06;5003408;28;20146;-81
2023/01/28 08:29:59;;;;;;;30.90;19.20;;;;;;;0.96;85.03;102203.06;4997430;28;20061;-80
2023/01/28 08:32:26;;;;;;;29.95;17.95;;;;;;;1.60;86.98;102215.25;4997852;28;20101;-80
2023/01/28 08:34:54;;;;;;;29.63;18.80;;;;;;;1.48;85.39;102214.00;4997677;28;20077;-80
2023/01/28 08:37:20;;;;;;;30.48;18.25;;;;;;;1.38;84.38;102220.44;5000470;28;20104;-80
2023/01/28 08:39:47;;;;;;;27.52;17.08;;;;;;;1.19;84.38;102222.84;5000970;28;20138;-79
2023/01/28 08:42:13;;;;;;;29.13;17.95;;;;;;;1.19;84.45;102211.69;5004361;28;20089;-80
2023/01/28 08:44:40;;;;;;;25.75;16.60;;;;;;;1.09;84.18;102221.50;5000660;28;20082;-79
2023/01/28 08:47:07;;;;;;;27.40;17.00;;;;;;;1.17;84.71;102224.66;5005642;28;20078;-79
2023/01/28 08:49:33;;;;;;;26.13;16.60;;;;;;;1.18;84.49;102226.31;5005390;28;20073;-78
2023/01/28 08:52:01;;;;;;;26.08;16.75;;;;;;;1.11;84.34;102230.03;5010673;28;20085;-79
2023/01/28 08:54:28;;;;;;;24.83;16.42;;;;;;;1.13;84.30;102232.53;5010975;28;20061;-79
2023/01/28 08:56:55;;;;;;;26.23;16.98;;;;;;;1.14;84.46;102232.50;5006829;28;20089;-80
2023/01/28 08:59:21;;;;;;;26.90;17.63;;;;;;;1.04;84.53;102235.44;5004031;28;20042;-79
2023/01/28 09:01:50;;;;;;;28.38;17.05;;;;;;;1.13;84.12;102235.13;5005798;28;20094;-80
2023/01/28 09:04:17;;;;;;;26.65;17.20;;;;;;;0.95;84.19;102234.88;5000357;28;20085;-80
2023/01/28 09:06:43;;;;;;;27.20;17.30;;;;;;;0.93;83.72;102231.56;5000234;28;20054;-80
2023/01/28 09:09:11;;;;;;;27.92;18.17;;;;;;;1.03;83.61;102234.63;5001693;28;20089;-80
2023/01/28 09:11:38;;;;;;;30.13;17.63;;;;;;;0.98;83.55;102239.09;5000699;28;20081;-80
2023/01/28 09:14:05;;;;;;;29.45;17.67;;;;;;;0.95;82.87;102234.88;4999779;28;20078;-80
2023/01/28 09:16:31;;;;;;;28.15;17.85;;;;;;;1.06;82.95;102252.56;5005961;28;20050;-80
2023/01/28 09:18:58;;;;;;;27.73;17.67;;;;;;;1.07;82.60;102250.81;4998957;28;20054;-79
2023/01/28 09:21:24;;;;;;;27.10;17.27;;;;;;;1.04;82.32;102256.06;5000125;28;20073;-80
2023/01/28 09:23:54;;;;;;;26.30;17.08;;;;;;;1.06;82.27;102269.75;4998106;28;20052;-79
2023/01/28 09:26:22;;;;;;;31.33;18.05;;;;;;;1.12;82.38;102272.94;5000118;28;20449;-79
2023/01/28 09:28:49;;;;;;;29.33;18.85;;;;;;;1.13;82.59;102276.38;4998458;28;20050;-79
2023/01/28 09:31:15;;;;;;;27.73;18.35;;;;;;;1.07;82.13;102274.84;5004689;28;20164;-80
2023/01/28 09:33:42;;;;;;;29.33;19.20;;;;;;;1.19;82.21;102278.72;4997838;28;20046;-77
2023/01/28 09:36:11;;;;;;;28.58;18.38;;;;;;;1.14;81.43;102281.47;4998790;28;20050;-77
2023/01/28 09:38:37;;;;;;;27.52;18.17;;;;;;;1.18;81.57;102289.94;4997057;28;20141;-78
2023/01/28 09:41:22;;;;;;;25.13;17.35;;;;;;;1.08;81.34;102291.16;4998572;28;20121;-79
2023/01/28 09:44:05;;;;;;;26.98;17.35;;;;;;;1.17;81.49;102293.41;4999084;28;20106;-79
2023/01/28 09:46:34;;;;;;;27.30;17.20;;;;;;;1.16;81.28;102291.72;4998562;28;20513;-79
2023/01/28 09:49:05;;;;;;;27.35;17.10;;;;;;;1.03;81.29;102282.75;5001012;28;20119;-79
2023/01/28 09:51:36;;;;;;;27.30;18.15;;;;;;;1.09;81.52;102298.00;4997727;28;20082;-79
2023/01/28 09:54:12;;;;;;;34.33;18.25;;;;;;;1.15;81.31;102298.63;4997611;28;20078;-77
2023/01/28 09:56:44;;;;;;;26.88;17.10;;;;;;;1.14;81.48;102302.09;4997509;28;20410;-80
2023/01/28 09:59:19;;;;;;;23.38;16.20;;;;;;;1.18;81.24;102287.38;5028631;22;20156;-79
2023/01/28 10:01:51;;;;;;;26.23;17.35;;;;;;;1.29;81.10;102292.97;4999878;28;20046;-80
2023/01/28 10:04:27;;;;;;;24.08;16.17;;;;;;;1.19;80.55;102294.22;5001102;28;20047;-79
2023/01/28 10:07:10;;;;;;;26.40;17.77;;;;;;;1.27;80.44;102293.03;5001658;28;20065;-80
2023/01/28 10:09:48;;;;;;;26.20;17.65;;;;;;;1.31;80.34;102288.59;4999208;28;20138;-80
2023/01/28 10:12:31;;;;;;;26.60;17.50;;;;;;;1.22;79.98;102294.94;4999564;28;20137;-80
2023/01/28 10:15:19;;;;;;;27.00;17.20;;;;;;;1.23;79.69;102301.78;4997884;28;20069;-80
2023/01/28 10:17:49;;;;;;;24.00;16.63;;;;;;;1.36;79.73;102278.97;4999560;28;20100;-80
2023/01/28 10:20:21;;;;;;;22.52;16.50;;;;;;;1.43;78.97;102282.13;4996021;28;20058;-80
2023/01/28 10:22:54;;;;;;;23.35;16.35;;;;;;;1.48;78.91;102273.31;4999692;28;20120;-80
2023/01/28 10:25:22;;;;;;;24.38;16.02;;;;;;;1.41;78.35;102278.78;4993253;28;20042;-79
2023/01/28 10:27:51;;;;;;;23.98;16.33;;;;;;;1.46;78.17;102290.59;4998555;28;20074;-79
2023/01/28 10:30:22;;;;;;;24.85;17.65;;;;;;;1.21;78.46;102287.25;4998178;28;20511;-79
2023/01/28 10:32:53;;;;;;;22.63;16.10;;;;;;;1.33;79.01;102279.09;4998441;28;20054;-81
2023/01/28 10:35:20;;;;;;;24.63;17.33;;;;;;;1.29;78.88;102280.94;4998162;28;20047;-79
2023/01/28 10:37:46;;;;;;;21.98;16.58;;;;;;;1.32;78.52;102278.25;4998899;28;20149;-80
2023/01/28 10:40:15;;;;;;;23.70;16.00;;;;;;;1.37;78.23;102282.38;4998794;28;20050;-80
2023/01/28 10:42:43;;;;;;;21.60;16.13;;;;;;;1.28;77.91;102283.56;4999952;28;20065;-80
2023/01/28 10:45:18;;;;;;;20.60;14.95;;;;;;;1.17;78.26;102283.09;5003155;28;20054;-79
2023/01/28 10:47:51;;;;;;;24.13;16.50;;;;;;;1.20;78.39;102283.00;5003693;28;20187;-80
2023/01/28 10:50:20;;;;;;;;;;;;;;;1.20;78.26;102293.31;4999286;28;20074;-80
2023/01/28 10:52:54;;;;;;;21.23;15.38;;;;;;;1.18;77.79;102280.47;4999862;28;19989;-79
2023/01/28 10:55:21;;;;;;;26.05;15.52;;;;;;;1.25;78.42;102288.81;4997342;28;20081;-79
2023/01/28 10:57:48;;;;;;;23.08;16.38;;;;;;;1.19;78.35;102278.72;5008255;28;20078;-78
2023/01/28 11:00:23;;;;;;;22.80;16.02;;;;;;;1.25;78.27;102278.50;5001439;28;20503;-79
2023/01/28 11:02:52;;;;;;;24.55;15.95;;;;;;;1.38;78.31;102284.06;5005151;28;20118;-78
2023/01/28 11:05:20;;;;;;;32.97;16.00;;;;;;;1.26;78.29;102288.78;5003783;28;20053;-79
2023/01/28 11:07:48;;;;;;;20.88;15.65;;;;;;;1.30;78.06;102292.09;4999360;28;20118;-79
2023/01/28 11:10:32;;;;;;;21.60;16.00;;;;;;;1.27;78.05;102282.72;4997066;28;20050;-79
2023/01/28 11:13:00;;;;;;;23.45;16.50;;;;;;;1.32;77.92;102282.56;4995660;28;20054;-78
2023/01/28 11:15:27;;;;;;;25.27;17.33;;;;;;;1.44;78.60;102286.41;4996461;28;20141;-79
2023/01/28 11:18:00;;;;;;;23.45;17.27;;;;;;;1.46;78.08;102288.03;4998080;28;20133;-78
2023/01/28 11:20:29;;;;;;;24.58;16.02;;;;;;;1.32;77.67;102282.56;4997898;28;20046;-78
2023/01/28 11:22:57;;;;;;;21.55;16.00;;;;;;;1.38;77.94;102279.75;4994546;28;20137;-79
2023/01/28 11:25:29;;;;;;;20.50;15.23;;;;;;;1.35;77.13;102273.88;4995567;28;20589;-80
2023/01/28 11:27:57;;;;;;;22.08;15.77;;;;;;;1.29;77.40;102285.25;4997192;28;20114;-78
2023/01/28 11:30:26;;;;;;;26.83;17.40;;;;;;;1.32;77.21;102274.81;4996575;28;20102;-78
2023/01/28 11:33:00;;;;;;;25.20;16.83;;;;;;;1.32;77.40;102285.13;4998088;28;20101;-78
2023/01/28 11:35:29;;;;;;;26.67;17.25;;;;;;;1.46;77.39;102287.19;4989906;28;20039;-78
2023/01/28 11:37:57;;;;;;;23.55;17.08;;;;;;;1.46;76.99;102293.19;4997870;28;20057;-79
2023/01/28 11:40:24;;;;;;;21.42;15.75;;;;;;;1.53;76.92;102293.78;4997112;28;20061;-80
2023/01/28 11:42:52;;;;;;;25.65;16.58;;;;;;;1.36;77.34;102291.88;4997983;28;20054;-80
2023/01/28 11:45:22;;;;;;;24.33;16.40;;;;;;;1.31;77.45;102283.44;4996373;28;20043;-79
2023/01/28 11:48:00;;;;;;;26.38;16.55;;;;;;;1.40;76.89;102285.69;4997570;28;20141;-80
2023/01/28 11:50:37;;;;;;;22.42;15.65;;;;;;;1.35;77.05;102286.75;4993883;28;20491;-79
2023/01/28 11:53:31;;;;;;;22.98;16.10;;;;;;;1.22;76.97;102288.94;4995187;28;20106;-80
2023/01/28 11:56:12;;;;;;;24.55;15.30;;;;;;;1.10;77.04;102284.22;4995805;28;20049;-80
2023/01/28 11:58:52;;;;;;;23.40;16.85;;;;;;;1.08;77.63;102292.00;4997380;28;20495;-79